Time;durP1;ratioP1;P1;durP2;ratioP2;P2;SDS_P1;SDS_P2;PMS_P1;PMS_P2;Temp;Humidity;BMP_temperature;BMP_pressure;BME280_temperature;BME280_humidity;BME280_pressure;Samples;Min_cycle;Max_cycle;Signal;HPM_P1;HPM_P2
2023/09/30 00:00:00;;;;;;;3.07;0.83;;;16.50;99.90;;;;;;5074598;28;20445;-83
2023/09/30 00:02:27;;;;;;;1.77;0.67;;;16.40;99.90;;;;;;5074550;28;20857;-83
2023/09/30 00:04:54;;;;;;;2.43;0.70;;;16.50;99.90;;;;;;5074492;28;20449;-83
2023/09/30 00:07:21;;;;;;;1.70;0.80;;;16.40;99.90;;;;;;5074366;28;20490;-83
2023/09/30 00:09:51;;;;;;;0.60;0.60;;;16.40;99.90;;;;;;5074456;28;20444;-83
2023/09/30 00:12:18;;;;;;;1.83;1.00;;;16.40;99.90;;;;;;5074274;28;20469;-83
2023/09/30 00:14:45;;;;;;;2.20;0.80;;;16.40;99.90;;;;;;5074040;28;20945;-83
2023/09/30 00:17:11;;;;;;;1.37;0.60;;;16.40;99.90;;;;;;5074302;28;20437;-83
2023/09/30 00:19:38;;;;;;;1.00;0.70;;;16.40;99.90;;;;;;5073909;28;20956;-83
2023/09/30 00:22:05;;;;;;;1.10;0.57;;;16.40;99.90;;;;;;5074257;28;20465;-83
2023/09/30 00:24:32;;;;;;;1.80;0.63;;;16.30;99.90;;;;;;5073986;28;20806;-83
2023/09/30 00:27:00;;;;;;;0.63;0.50;;;16.30;99.90;;;;;;5074091;28;20456;-83
2023/09/30 00:29:27;;;;;;;2.83;1.10;;;16.30;99.90;;;;;;5074021;28;20858;-83
2023/09/30 00:31:54;;;;;;;4.83;0.83;;;16.30;99.90;;;;;;5073959;28;20511;-83
2023/09/30 00:34:20;;;;;;;2.93;0.90;;;16.30;99.90;;;;;;5073939;28;20445;-83
2023/09/30 00:36:47;;;;;;;2.27;0.70;;;16.60;99.90;;;;;;5073602;28;20930;-83
2023/09/30 00:39:14;;;;;;;2.17;0.93;;;16.30;99.90;;;;;;5073749;28;20506;-82
2023/09/30 00:41:41;;;;;;;2.60;0.60;;;16.30;99.90;;;;;;5074286;28;20476;-83
2023/09/30 00:44:09;;;;;;;1.93;0.70;;;16.30;99.90;;;;;;5073721;28;20945;-83
2023/09/30 00:46:39;;;;;;;2.93;0.50;;;16.30;99.90;;;;;;5073714;28;20457;-83
2023/09/30 00:49:06;;;;;;;2.00;0.60;;;16.30;99.90;;;;;;5073959;28;20465;-83
2023/09/30 00:51:34;;;;;;;0.57;0.57;;;16.30;99.90;;;;;;5073934;28;20445;-83
2023/09/30 00:54:02;;;;;;;1.83;0.90;;;16.30;99.90;;;;;;5073264;28;20445;-83
2023/09/30 00:56:30;;;;;;;2.13;1.00;;;16.30;99.90;;;;;;5073611;28;20455;-83
2023/09/30 00:58:57;;;;;;;1.43;0.70;;;16.20;99.90;;;;;;5073539;28;20468;-82
2023/09/30 01:01:26;;;;;;;1.97;0.70;;;16.20;99.90;;;;;;5073458;28;20527;-83
2023/09/30 01:03:52;;;;;;;3.70;0.83;;;16.20;99.90;;;;;;5073509;28;20440;-83
2023/09/30 01:06:20;;;;;;;4.87;0.87;;;16.20;99.90;;;;;;5073477;28;20448;-83
2023/09/30 01:08:46;;;;;;;1.03;0.50;;;16.20;99.90;;;;;;5073165;28;20487;-83
2023/09/30 01:11:14;;;;;;;0.80;0.50;;;16.10;99.90;;;;;;5073094;28;20942;-83
2023/09/30 01:13:43;;;;;;;1.90;0.70;;;16.20;99.90;;;;;;5073395;28;20918;-83
2023/09/30 01:16:11;;;;;;;4.00;1.40;;;16.20;99.90;;;;;;5073364;28;20440;-83
2023/09/30 01:18:42;;;;;;;1.43;0.70;;;16.10;99.90;;;;;;5073009;28;20945;-83
2023/09/30 01:21:10;;;;;;;2.40;0.70;;;16.10;99.90;;;;;;5073021;28;20918;-83
2023/09/30 01:23:38;;;;;;;1.57;0.80;;;16.10;99.90;;;;;;5073203;28;20468;-83
2023/09/30 01:26:06;;;;;;;2.77;1.30;;;16.10;99.90;;;;;;5073217;28;20437;-83
2023/09/30 01:28:33;;;;;;;7.13;1.17;;;16.00;99.90;;;;;;5072827;28;20579;-82
2023/09/30 01:31:00;;;;;;;1.90;1.00;;;16.00;99.90;;;;;;5072877;28;20444;-83
2023/09/30 01:33:28;;;;;;;1.73;1.23;;;15.90;99.90;;;;;;5073128;28;20468;-83
2023/09/30 01:35:55;;;;;;;0.50;0.50;;;16.00;99.90;;;;;;5073152;28;20453;-83
2023/09/30 01:38:22;;;;;;;4.33;1.23;;;15.90;99.90;;;;;;5073152;28;20444;-83
2023/09/30 01:40:50;;;;;;;2.87;0.67;;;15.80;99.90;;;;;;5072801;28;20455;-83
2023/09/30 01:43:17;;;;;;;1.20;1.00;;;16.00;99.90;;;;;;5071992;28;20484;-83
2023/09/30 01:45:44;;;;;;;1.03;0.50;;;15.70;99.90;;;;;;5071869;28;20946;-83
2023/09/30 01:48:11;;;;;;;4.07;0.90;;;15.90;99.90;;;;;;5073585;28;20468;-83
2023/09/30 01:50:38;;;;;;;1.53;0.80;;;16.80;99.90;;;;;;5072123;28;20455;-83
2023/09/30 01:53:06;;;;;;;0.53;0.50;;;15.50;99.90;;;;;;5072023;28;20465;-83
2023/09/30 01:55:33;;;;;;;1.50;0.60;;;15.60;99.90;;;;;;5072049;28;20447;-83
2023/09/30 01:58:01;;;;;;;0.93;0.70;;;15.60;99.90;;;;;;5072051;28;20444;-83
2023/09/30 02:00:29;;;;;;;3.53;1.10;;;15.50;99.90;;;;;;5080667;28;20447;-84
2023/09/30 02:02:55;;;;;;;0.70;0.70;;;15.50;99.90;;;;;;5071886;28;20472;-83
2023/09/30 02:05:23;;;;;;;1.23;0.63;;;15.50;99.90;;;;;;5071696;28;20989;-83
2023/09/30 02:07:50;;;;;;;0.60;0.50;;;15.40;99.90;;;;;;5071728;28;20429;-83
2023/09/30 02:10:18;;;;;;;3.07;0.87;;;15.50;99.90;;;;;;5071892;28;20498;-83
2023/09/30 02:12:45;;;;;;;2.10;0.90;;;15.50;99.90;;;;;;5072649;28;20505;-83
2023/09/30 02:15:14;;;;;;;1.03;0.83;;;15.50;99.90;;;;;;5075413;28;20440;-83
2023/09/30 02:17:45;;;;;;;1.47;0.90;;;15.50;99.90;;;;;;5075392;28;20444;-83
2023/09/30 02:20:15;;;;;;;0.73;0.50;;;15.50;99.90;;;;;;5075357;28;20479;-83
2023/09/30 02:22:43;;;;;;;1.07;0.77;;;15.60;99.90;;;;;;5075636;28;20475;-83
2023/09/30 02:25:12;;;;;;;1.07;0.70;;;15.60;99.90;;;;;;5075213;28;20440;-83
2023/09/30 02:27:39;;;;;;;2.73;1.00;;;15.60;99.90;;;;;;5075177;28;20814;-83
2023/09/30 02:30:08;;;;;;;1.90;0.70;;;15.60;99.90;;;;;;5074831;28;20577;-83
2023/09/30 02:32:36;;;;;;;0.60;0.60;;;15.60;99.90;;;;;;5075301;28;20460;-83
2023/09/30 02:35:04;;;;;;;1.67;0.70;;;15.60;99.90;;;;;;5074822;28;20821;-83
2023/09/30 02:37:34;;;;;;;0.60;0.60;;;15.60;99.90;;;;;;5075015;28;20506;-83
2023/09/30 02:40:01;;;;;;;3.07;0.70;;;15.60;99.90;;;;;;5074993;28;20483;-83
2023/09/30 02:42:28;;;;;;;0.87;0.60;;;15.50;99.90;;;;;;5038428;28;1045273;-83
2023/09/30 02:44:55;;;;;;;1.37;0.70;;;15.60;99.90;;;;;;5076262;28;20497;-83
2023/09/30 02:47:22;;;;;;;1.20;0.70;;;15.50;99.90;;;;;;5076010;28;20440;-83
2023/09/30 02:49:50;;;;;;;1.23;0.77;;;15.50;99.90;;;;;;5076186;28;20476;-82
2023/09/30 02:52:16;;;;;;;2.20;1.07;;;15.60;99.90;;;;;;5075850;28;20495;-83
2023/09/30 02:54:43;;;;;;;1.03;0.90;;;15.50;99.90;;;;;;5075636;28;20425;-82
2023/09/30 02:57:10;;;;;;;1.40;0.50;;;15.50;99.90;;;;;;5075839;28;20808;-83
2023/09/30 02:59:37;;;;;;;3.87;1.93;;;15.50;99.90;;;;;;5075776;28;20449;-82
2023/09/30 03:02:03;;;;;;;0.80;0.63;;;15.70;99.90;;;;;;5076329;28;20461;-83
2023/09/30 03:04:30;;;;;;;1.40;0.90;;;15.50;99.90;;;;;;5075401;28;20453;-83
2023/09/30 03:06:58;;;;;;;1.20;0.80;;;15.40;99.90;;;;;;5075760;28;20448;-83
2023/09/30 03:09:25;;;;;;;1.53;0.70;;;15.50;99.90;;;;;;5075942;28;20481;-83
2023/09/30 03:11:52;;;;;;;2.70;0.87;;;15.50;99.90;;;;;;5075543;28;20469;-83
2023/09/30 03:14:19;;;;;;;3.13;0.73;;;15.50;99.90;;;;;;5075560;28;20445;-83
2023/09/30 03:16:46;;;;;;;1.00;0.60;;;15.50;99.90;;;;;;5075504;28;20885;-83
2023/09/30 03:19:16;;;;;;;4.00;0.93;;;15.60;99.90;;;;;;5075458;28;20444;-83
2023/09/30 03:21:43;;;;;;;3.40;1.53;;;15.80;99.90;;;;;;5075363;28;20812;-83
2023/09/30 03:24:12;;;;;;;1.70;0.80;;;15.50;99.90;;;;;;5075319;28;20441;-83
2023/09/30 03:26:40;;;;;;;0.70;0.70;;;15.70;99.90;;;;;;5075306;28;20453;-83
2023/09/30 03:29:08;;;;;;;1.70;0.70;;;15.50;99.90;;;;;;5075212;28;20572;-83
2023/09/30 03:31:35;;;;;;;0.63;0.60;;;15.70;99.90;;;;;;5075152;28;20549;-83
2023/09/30 03:34:03;;;;;;;2.10;0.80;;;15.60;99.90;;;;;;5074894;28;20946;-83
2023/09/30 03:36:31;;;;;;;2.10;0.80;;;15.60;99.90;;;;;;5075184;28;20449;-83
2023/09/30 03:38:59;;;;;;;2.40;1.03;;;15.60;99.90;;;;;;5074762;28;20946;-83
2023/09/30 03:41:28;;;;;;;1.27;0.73;;;15.70;99.90;;;;;;5074869;28;20540;-83
2023/09/30 03:43:55;;;;;;;1.20;0.80;;;15.60;99.90;;;;;;5074719;28;20437;-83
2023/09/30 03:46:21;;;;;;;2.47;1.00;;;15.60;99.90;;;;;;5074877;28;20468;-83
2023/09/30 03:48:48;;;;;;;2.10;0.90;;;15.80;99.90;;;;;;5074799;28;20483;-83
2023/09/30 03:51:15;;;;;;;2.57;0.90;;;15.60;99.90;;;;;;5074814;28;20451;-83
2023/09/30 03:53:42;;;;;;;1.50;0.80;;;15.60;99.90;;;;;;5074728;28;20476;-83
2023/09/30 03:56:11;;;;;;;1.33;0.70;;;15.50;99.90;;;;;;5074426;28;20946;-83
2023/09/30 03:58:40;;;;;;;1.13;1.03;;;15.60;99.90;;;;;;5074700;28;20494;-83
2023/09/30 04:01:07;;;;;;;0.63;0.63;;;15.60;99.90;;;;;;5074398;28;20812;-83
2023/09/30 04:03:34;;;;;;;1.30;0.63;;;15.60;99.90;;;;;;5074555;28;20460;-83
2023/09/30 04:06:03;;;;;;;1.10;1.00;;;15.70;99.90;;;;;;5074213;28;20449;-83
2023/09/30 04:08:33;;;;;;;0.80;0.70;;;15.60;99.90;;;;;;5074441;28;20440;-83
2023/09/30 04:10:59;;;;;;;2.13;0.70;;;15.60;99.90;;;;;;5074510;28;20539;-83
2023/09/30 04:13:26;;;;;;;1.77;0.80;;;15.60;99.90;;;;;;5074325;28;20464;-83
2023/09/30 04:15:54;;;;;;;3.33;0.60;;;15.60;99.90;;;;;;5074078;28;20441;-83
2023/09/30 04:18:21;;;;;;;1.90;0.87;;;15.60;99.90;;;;;;5073984;28;20941;-83
2023/09/30 04:20:48;;;;;;;1.30;1.03;;;15.60;99.90;;;;;;5074230;28;20441;-83
2023/09/30 04:23:15;;;;;;;3.07;0.90;;;15.60;99.90;;;;;;5074144;28;20564;-83
2023/09/30 04:25:43;;;;;;;1.87;1.20;;;15.60;99.90;;;;;;5074374;28;20437;-83
2023/09/30 04:28:10;;;;;;;1.30;1.03;;;15.60;99.90;;;;;;5073784;28;20826;-83
2023/09/30 04:30:37;;;;;;;1.40;0.70;;;15.60;99.90;;;;;;5073986;28;20485;-83
2023/09/30 04:33:06;;;;;;;0.63;0.60;;;15.60;99.90;;;;;;5073633;28;20989;-83
2023/09/30 04:35:35;;;;;;;0.63;0.63;;;15.50;99.90;;;;;;5074072;28;20538;-83
2023/09/30 04:38:01;;;;;;;1.03;0.83;;;15.60;99.90;;;;;;5073942;28;20548;-83
2023/09/30 04:40:29;;;;;;;2.73;1.10;;;15.80;99.90;;;;;;5074691;28;20841;-83
2023/09/30 04:42:58;;;;;;;1.80;1.00;;;15.60;99.90;;;;;;5073477;28;20849;-83
2023/09/30 04:45:26;;;;;;;0.73;0.73;;;15.60;99.90;;;;;;5073910;28;20449;-83
2023/09/30 04:47:53;;;;;;;1.47;0.90;;;15.50;99.90;;;;;;5073748;28;20471;-83
2023/09/30 04:50:21;;;;;;;2.70;1.10;;;15.60;99.90;;;;;;5073599;28;20572;-83
2023/09/30 04:52:48;;;;;;;1.00;0.80;;;15.70;99.90;;;;;;5073254;28;20496;-83
2023/09/30 04:55:16;;;;;;;1.13;0.93;;;15.50;99.90;;;;;;5073560;28;20441;-83
2023/09/30 04:57:44;;;;;;;0.50;0.50;;;15.70;99.90;;;;;;5073626;28;20449;-83
2023/09/30 05:00:13;;;;;;;2.50;0.83;;;15.90;99.90;;;;;;5073568;28;20468;-83
2023/09/30 05:02:40;;;;;;;2.87;0.63;;;15.60;99.90;;;;;;5073497;28;20527;-83
2023/09/30 05:05:08;;;;;;;2.47;0.70;;;15.60;99.90;;;;;;5073546;28;20527;-83
2023/09/30 05:07:36;;;;;;;0.97;0.67;;;15.60;99.90;;;;;;5073475;28;20494;-83
2023/09/30 05:10:05;;;;;;;3.50;1.20;;;15.60;99.90;;;;;;5073404;28;20480;-83
2023/09/30 05:12:32;;;;;;;0.70;0.70;;;15.50;99.90;;;;;;5073299;28;20469;-83
2023/09/30 05:14:59;;;;;;;3.80;0.97;;;15.60;99.90;;;;;;5073370;28;20485;-83
2023/09/30 05:17:26;;;;;;;0.73;0.70;;;15.60;99.90;;;;;;5073347;28;20441;-83
2023/09/30 05:19:53;;;;;;;1.43;0.77;;;15.60;99.90;;;;;;5073346;28;20437;-83
2023/09/30 05:22:23;;;;;;;0.97;0.70;;;15.70;99.90;;;;;;5073276;28;20465;-83
2023/09/30 05:24:52;;;;;;;5.37;0.80;;;15.50;99.90;;;;;;5072967;28;20957;-83
2023/09/30 05:27:18;;;;;;;2.43;0.97;;;15.40;99.90;;;;;;5072961;28;20930;-83
2023/09/30 05:29:45;;;;;;;1.73;0.70;;;15.50;99.90;;;;;;5073160;28;20488;-83
2023/09/30 05:32:14;;;;;;;1.53;1.03;;;15.50;99.90;;;;;;5073354;28;20465;-83
2023/09/30 05:34:41;;;;;;;1.30;1.03;;;15.50;99.90;;;;;;5072881;28;20448;-83
2023/09/30 05:37:07;;;;;;;6.60;1.53;;;15.50;99.90;;;;;;5073042;28;20812;-82
2023/09/30 05:39:35;;;;;;;0.60;0.50;;;15.50;99.90;;;;;;5073163;28;20440;-83
2023/09/30 05:42:05;;;;;;;1.93;0.87;;;15.50;99.90;;;;;;5072535;28;20857;-83
2023/09/30 05:44:32;;;;;;;4.10;1.10;;;15.50;99.90;;;;;;5073215;28;20425;-83
2023/09/30 05:46:59;;;;;;;1.20;1.10;;;15.50;99.90;;;;;;5073091;28;20444;-83
2023/09/30 05:49:26;;;;;;;1.23;1.03;;;15.40;99.90;;;;;;5077032;28;20491;-83
2023/09/30 05:51:55;;;;;;;1.87;1.50;;;15.40;99.90;;;;;;5077090;28;20480;-82
2023/09/30 05:54:22;;;;;;;1.23;0.97;;;15.50;99.90;;;;;;5077105;28;20457;-83
2023/09/30 05:56:49;;;;;;;2.03;1.13;;;15.50;99.90;;;;;;5076876;28;20429;-83
2023/09/30 05:59:17;;;;;;;0.93;0.83;;;15.50;99.90;;;;;;5076921;28;20448;-83
2023/09/30 06:01:43;;;;;;;1.53;0.70;;;15.50;99.90;;;;;;5076583;28;20996;-83
2023/09/30 06:04:10;;;;;;;2.20;1.30;;;15.60;99.90;;;;;;5076865;28;20457;-83
2023/09/30 06:06:38;;;;;;;1.57;1.47;;;15.70;99.90;;;;;;5076864;28;20448;-83
2023/09/30 06:09:07;;;;;;;1.73;1.10;;;15.60;99.90;;;;;;5076838;28;20490;-83
2023/09/30 06:11:35;;;;;;;4.07;1.03;;;15.70;99.90;;;;;;5076403;28;20443;-83
2023/09/30 06:14:06;;;;;;;1.73;0.70;;;15.70;99.90;;;;;;5076674;28;20447;-83
2023/09/30 06:16:34;;;;;;;1.53;0.90;;;15.80;99.90;;;;;;5076357;28;20464;-83
2023/09/30 06:19:01;;;;;;;6.60;1.10;;;15.80;99.90;;;;;;5076594;28;20436;-83
2023/09/30 06:21:29;;;;;;;2.17;0.80;;;15.80;99.90;;;;;;5076420;28;20444;-83
2023/09/30 06:23:55;;;;;;;1.43;1.10;;;15.80;99.90;;;;;;5076549;28;20502;-83
2023/09/30 06:26:24;;;;;;;0.83;0.80;;;15.80;99.90;;;;;;5076482;28;20445;-83
2023/09/30 06:28:54;;;;;;;3.70;1.30;;;15.80;99.90;;;;;;5076139;28;20444;-83
2023/09/30 06:31:20;;;;;;;1.97;0.80;;;15.80;99.90;;;;;;5076272;28;20507;-83
2023/09/30 06:33:49;;;;;;;4.23;1.20;;;15.80;99.90;;;;;;5076031;28;20472;-83
2023/09/30 06:36:16;;;;;;;2.50;1.23;;;15.80;99.90;;;;;;5075916;28;20942;-83
2023/09/30 06:38:44;;;;;;;1.60;1.00;;;15.80;99.90;;;;;;5076184;28;20484;-83
2023/09/30 06:41:16;;;;;;;1.27;1.07;;;16.70;99.90;;;;;;5076333;28;20444;-83
2023/09/30 06:43:43;;;;;;;1.77;1.00;;;15.90;99.90;;;;;;5075869;28;20530;-83
2023/09/30 06:46:10;;;;;;;1.57;1.00;;;15.90;99.90;;;;;;5075772;28;20451;-83
2023/09/30 06:48:40;;;;;;;1.73;1.20;;;15.80;99.90;;;;;;5076336;28;20447;-83
2023/09/30 06:51:08;;;;;;;0.80;0.80;;;15.80;99.90;;;;;;5075621;28;21001;-83
2023/09/30 06:53:35;;;;;;;2.27;1.27;;;15.90;99.90;;;;;;5075890;28;20465;-83
2023/09/30 06:56:05;;;;;;;2.30;1.00;;;17.20;99.90;;;;;;5075930;28;20457;-83
2023/09/30 06:58:32;;;;;;;3.90;1.33;;;15.90;99.90;;;;;;5075222;28;20910;-83
2023/09/30 07:00:59;;;;;;;1.73;1.30;;;16.00;99.90;;;;;;5075521;28;20487;-83
2023/09/30 07:03:26;;;;;;;1.43;1.13;;;16.00;99.90;;;;;;5075715;28;20471;-83
2023/09/30 07:05:54;;;;;;;3.80;1.90;;;16.00;99.90;;;;;;5075754;28;20934;-83
2023/09/30 07:08:22;;;;;;;3.37;1.37;;;16.10;99.90;;;;;;5075696;28;20445;-84
2023/09/30 07:10:49;;;;;;;10.53;1.70;;;16.10;99.90;;;;;;5075537;28;21016;-84
2023/09/30 07:13:17;;;;;;;1.80;1.20;;;16.10;99.90;;;;;;5075489;28;20469;-84
2023/09/30 07:15:44;;;;;;;3.57;1.20;;;16.10;99.90;;;;;;5075569;28;20456;-84
2023/09/30 07:18:12;;;;;;;5.97;1.67;;;16.20;99.90;;;;;;5075205;28;20447;-83
2023/09/30 07:20:38;;;;;;;1.47;0.97;;;16.30;99.90;;;;;;5075561;28;20441;-84
2023/09/30 07:23:05;;;;;;;6.23;1.20;;;16.30;99.90;;;;;;5075403;28;20484;-84
2023/09/30 07:25:34;;;;;;;3.17;1.33;;;16.40;99.90;;;;;;5075038;28;20449;-84
2023/09/30 07:28:01;;;;;;;20.60;1.70;;;16.50;99.90;;;;;;5075539;28;20457;-83
2023/09/30 07:30:28;;;;;;;3.17;1.20;;;16.50;99.90;;;;;;5076072;28;20977;-83
2023/09/30 07:32:54;;;;;;;1.77;1.40;;;16.50;99.90;;;;;;5075169;28;20471;-83
2023/09/30 07:35:21;;;;;;;6.00;1.97;;;16.60;99.90;;;;;;5075453;28;20441;-83
2023/09/30 07:37:51;;;;;;;3.23;1.23;;;16.70;99.90;;;;;;5074834;28;20440;-84
2023/09/30 07:40:18;;;;;;;8.23;1.87;;;16.80;99.90;;;;;;5075160;28;20431;-83
2023/09/30 07:42:46;;;;;;;2.30;1.20;;;16.90;99.90;;;;;;5075064;28;20481;-83
2023/09/30 07:45:16;;;;;;;3.57;1.67;;;17.00;99.90;;;;;;5075058;28;20800;-83
2023/09/30 07:47:44;;;;;;;1.50;1.30;;;17.00;99.90;;;;;;5075007;28;20464;-83
2023/09/30 07:50:12;;;;;;;2.97;1.07;;;17.10;99.90;;;;;;5074769;28;20484;-83
2023/09/30 07:52:39;;;;;;;1.03;0.90;;;17.20;99.90;;;;;;5074765;28;20523;-83
2023/09/30 07:55:08;;;;;;;1.03;1.00;;;17.20;99.90;;;;;;5074997;28;20453;-83
2023/09/30 07:57:34;;;;;;;2.83;1.07;;;17.30;99.90;;;;;;5074833;28;20437;-83
2023/09/30 08:00:07;;;;;;;1.20;1.10;;;17.40;99.90;;;;;;5074717;28;20444;-83
2023/09/30 08:02:34;;;;;;;2.33;1.00;;;17.50;99.90;;;;;;5074709;28;20555;-83
2023/09/30 08:05:01;;;;;;;2.73;1.70;;;17.40;99.90;;;;;;5074331;28;20437;-84
2023/09/30 08:07:27;;;;;;;1.93;1.33;;;17.40;99.90;;;;;;5074254;28;20452;-83
2023/09/30 08:09:54;;;;;;;1.90;1.40;;;17.40;99.90;;;;;;5073907;28;20446;-83
2023/09/30 08:12:21;;;;;;;1.60;1.40;;;17.30;99.90;;;;;;5073825;28;20985;-83
2023/09/30 08:14:48;;;;;;;1.40;1.30;;;17.30;99.90;;;;;;5074378;28;20444;-82
2023/09/30 08:17:17;;;;;;;1.00;0.90;;;17.30;99.90;;;;;;5074618;28;20536;-83
2023/09/30 08:19:44;;;;;;;3.07;1.40;;;17.30;99.90;;;;;;5074283;28;20445;-83
2023/09/30 08:22:11;;;;;;;4.30;1.57;;;17.30;99.90;;;;;;5074138;28;20467;-83
2023/09/30 08:24:37;;;;;;;7.73;1.40;;;17.40;99.90;;;;;;5073814;28;20964;-83
2023/09/30 08:27:05;;;;;;;2.97;1.63;;;17.40;99.90;;;;;;5074138;28;20433;-83
2023/09/30 08:29:35;;;;;;;2.47;1.50;;;17.60;99.90;;;;;;5074358;28;20437;-83
2023/09/30 08:32:02;;;;;;;3.77;1.60;;;17.60;99.90;;;;;;5073937;28;20488;-83
2023/09/30 08:34:31;;;;;;;2.30;1.33;;;17.70;99.90;;;;;;5074050;28;20940;-83
2023/09/30 08:36:59;;;;;;;3.73;1.83;;;17.70;99.90;;;;;;5073937;28;20440;-83
2023/09/30 08:39:26;;;;;;;0.83;0.83;;;17.80;99.90;;;;;;5073884;28;20510;-83
2023/09/30 08:41:55;;;;;;;2.00;1.27;;;17.80;99.90;;;;;;5073339;28;20477;-83
2023/09/30 08:44:21;;;;;;;2.83;1.70;;;17.80;99.90;;;;;;5073931;28;20445;-83
2023/09/30 08:46:50;;;;;;;3.70;1.30;;;17.80;99.90;;;;;;5073873;28;20425;-84
2023/09/30 08:49:17;;;;;;;1.43;1.20;;;18.00;99.90;;;;;;5073765;28;20467;-83
2023/09/30 08:51:45;;;;;;;3.53;1.73;;;18.00;99.90;;;;;;5073573;28;20485;-83
2023/09/30 08:54:12;;;;;;;1.60;1.30;;;18.00;99.90;;;;;;5073722;28;20447;-83
2023/09/30 08:56:44;;;;;;;1.30;1.20;;;18.00;99.90;;;;;;5074035;28;20435;-83
2023/09/30 08:59:12;;;;;;;1.53;1.37;;;18.20;99.90;;;;;;5073369;28;20433;-84
2023/09/30 09:01:40;;;;;;;2.10;1.10;;;18.50;99.90;;;;;;5073534;28;20448;-84
2023/09/30 09:04:08;;;;;;;4.93;1.80;;;18.80;99.90;;;;;;5073350;28;20925;-84
2023/09/30 09:06:34;;;;;;;2.20;1.30;;;19.10;99.90;;;;;;5073559;28;20437;-84
2023/09/30 09:09:16;;;;;;;4.70;1.43;;;19.30;99.90;;;;;;5073509;28;20453;-84
2023/09/30 09:11:44;;;;;;;3.80;1.60;;;19.80;99.90;;;;;;5073144;28;20475;-84
2023/09/30 09:14:11;;;;;;;5.10;2.00;;;20.20;99.90;;;;;;5074606;28;20499;-84
2023/09/30 09:16:37;;;;;;;1.50;1.40;;;20.70;99.90;;;;;;5080304;28;20471;-83
2023/09/30 09:19:15;;;;;;;3.93;1.60;;;21.10;99.90;;;;;;5073212;28;20433;-83
2023/09/30 09:21:55;;;;;;;1.73;1.33;;;21.50;99.90;;;;;;5073383;28;20422;-82
2023/09/30 09:24:30;;;;;;;1.93;1.37;;;21.60;99.90;;;;;;5073327;28;20424;-83
2023/09/30 09:27:09;;;;;;;2.87;2.03;;;21.50;99.90;;;;;;5073074;28;20751;-83
2023/09/30 09:29:37;;;;;;;1.43;1.33;;;21.50;99.90;;;;;;5073227;28;20424;-84
2023/09/30 09:32:16;;;;;;;3.17;1.60;;;21.70;99.90;;;;;;5073083;28;20488;-83
2023/09/30 09:34:44;;;;;;;3.70;1.40;;;22.10;99.90;;;;;;5073403;28;20432;-83
2023/09/30 09:37:15;;;;;;;1.77;1.53;;;22.30;99.90;;;;;;5073110;28;20452;-83
2023/09/30 09:39:52;;;;;;;3.47;1.80;;;22.20;99.90;;;;;;5072823;28;20447;-83
2023/09/30 09:42:29;;;;;;;4.63;1.67;;;22.20;99.90;;;;;;5072692;28;20525;-85
2023/09/30 09:44:57;;;;;;;2.40;1.60;;;22.20;99.90;;;;;;5072955;28;20545;-83
2023/09/30 09:47:25;;;;;;;3.50;1.53;;;22.10;99.90;;;;;;5072723;28;20921;-84
2023/09/30 09:49:52;;;;;;;5.37;2.20;;;22.10;99.90;;;;;;5072741;28;20799;-83
2023/09/30 09:52:20;;;;;;;5.33;1.50;;;22.10;99.90;;;;;;5072825;28;20605;-82
2023/09/30 09:54:47;;;;;;;4.30;2.00;;;22.00;99.90;;;;;;5072839;28;20444;-82
2023/09/30 09:57:18;;;;;;;4.30;1.53;;;22.00;99.90;;;;;;5072772;28;20436;-83
2023/09/30 09:59:46;;;;;;;2.57;1.80;;;22.00;99.90;;;;;;5072871;28;20440;-83
2023/09/30 10:02:15;;;;;;;1.63;1.27;;;21.90;99.90;;;;;;5072861;28;20551;-83
2023/09/30 10:04:43;;;;;;;3.80;2.00;;;21.80;99.90;;;;;;5072794;28;20433;-83
2023/09/30 10:07:14;;;;;;;3.00;1.13;;;21.60;99.90;;;;;;5072644;28;20444;-83
2023/09/30 10:09:47;;;;;;;3.43;1.33;;;21.40;99.90;;;;;;5072585;28;20913;-83
2023/09/30 10:12:16;;;;;;;2.07;1.10;;;21.10;99.90;;;;;;5072422;28;21004;-84
2023/09/30 10:14:42;;;;;;;4.63;1.70;;;20.90;99.90;;;;;;5072872;28;20826;-84
2023/09/30 10:17:09;;;;;;;2.03;1.23;;;20.70;99.90;;;;;;5072825;28;20452;-82
2023/09/30 10:19:36;;;;;;;6.33;1.53;;;20.40;99.90;;;;;;5072814;28;20447;-82
2023/09/30 10:22:25;;;;;;;2.20;1.43;;;20.30;99.90;;;;;;5072378;28;20977;-82
2023/09/30 10:24:53;;;;;;;3.37;1.40;;;20.10;99.90;;;;;;5072843;28;20429;-82
2023/09/30 10:27:42;;;;;;;4.50;1.43;;;20.00;99.90;;;;;;5072751;28;20498;-82
2023/09/30 10:30:13;;;;;;;3.70;1.77;;;19.80;99.90;;;;;;5072373;28;20952;-82
2023/09/30 10:33:11;;;;;;;5.53;1.93;;;19.70;99.90;;;;;;5072550;28;20518;-82
2023/09/30 10:35:48;;;;;;;4.17;1.17;;;19.60;99.90;;;;;;5060084;28;20452;-82
2023/09/30 10:38:43;;;;;;;2.17;1.87;;;19.50;99.90;;;;;;5076765;28;20498;-82
2023/09/30 10:41:11;;;;;;;2.00;1.33;;;19.30;99.90;;;;;;5076107;28;20444;-82
2023/09/30 10:43:41;;;;;;;2.30;1.37;;;19.30;99.90;;;;;;5075920;28;20527;-82
2023/09/30 10:46:33;;;;;;;9.43;2.27;;;19.20;99.90;;;;;;5076072;28;20498;-82
2023/09/30 10:49:18;;;;;;;1.80;0.87;;;19.20;99.90;;;;;;5073130;28;20460;-83
2023/09/30 10:51:46;;;;;;;1.90;1.30;;;19.10;99.90;;;;;;5075840;28;20511;-82
2023/09/30 10:54:14;;;;;;;2.30;1.00;;;19.00;99.90;;;;;;5075607;28;20956;-83
2023/09/30 10:56:41;;;;;;;4.23;1.57;;;19.00;99.90;;;;;;5075551;28;20964;-82
2023/09/30 10:59:09;;;;;;;1.43;1.30;;;19.00;99.90;;;;;;5075861;28;20463;-82
2023/09/30 11:01:36;;;;;;;3.47;1.40;;;19.10;99.90;;;;;;5075800;28;20441;-82
2023/09/30 11:04:05;;;;;;;2.87;1.27;;;19.20;99.90;;;;;;5075405;28;21016;-82
2023/09/30 11:06:33;;;;;;;2.70;1.40;;;19.50;99.90;;;;;;5075739;28;20445;-82
2023/09/30 11:09:02;;;;;;;4.77;1.73;;;19.70;99.90;;;;;;5075740;28;20487;-82
2023/09/30 11:11:42;;;;;;;2.93;1.93;;;19.90;99.90;;;;;;5075642;28;20476;-82
2023/09/30 11:14:24;;;;;;;2.70;1.57;;;20.10;99.90;;;;;;5075662;28;20428;-82
2023/09/30 11:16:53;;;;;;;2.13;1.30;;;20.20;99.90;;;;;;5075339;28;20451;-83
2023/09/30 11:19:21;;;;;;;3.10;1.33;;;20.30;99.90;;;;;;5075646;28;20436;-82
2023/09/30 11:21:49;;;;;;;1.90;1.17;;;20.50;99.90;;;;;;5075175;28;20460;-83
2023/09/30 11:24:16;;;;;;;2.70;1.47;;;20.70;99.90;;;;;;5076128;28;20452;-83
2023/09/30 11:26:43;;;;;;;5.03;1.27;;;20.90;99.90;;;;;;5075306;28;20448;-83
2023/09/30 11:29:12;;;;;;;6.63;1.50;;;21.00;99.90;;;;;;5075265;28;20453;-83
2023/09/30 11:31:40;;;;;;;2.80;1.50;;;21.30;99.90;;;;;;5075105;28;20495;-83
2023/09/30 11:34:08;;;;;;;3.43;1.37;;;21.30;99.90;;;;;;5074905;28;20944;-82
2023/09/30 11:36:36;;;;;;;2.33;1.30;;;21.20;99.90;;;;;;5075084;28;20471;-82
2023/09/30 11:39:04;;;;;;;3.03;1.63;;;21.10;99.90;;;;;;5074599;28;20455;-82
2023/09/30 11:41:34;;;;;;;3.07;1.50;;;21.20;99.90;;;;;;5074719;28;20786;-83
2023/09/30 11:44:07;;;;;;;2.93;1.23;;;21.20;99.90;;;;;;5075078;28;20433;-83
2023/09/30 11:46:47;;;;;;;3.60;1.73;;;21.20;99.90;;;;;;5073829;28;20509;-82
2023/09/30 11:49:28;;;;;;;5.57;1.70;;;21.20;99.90;;;;;;5074967;28;20487;-82
2023/09/30 11:51:56;;;;;;;7.13;3.30;;;21.30;99.90;;;;;;5074804;28;20491;-83
2023/09/30 11:54:23;;;;;;;3.80;1.30;;;21.40;99.90;;;;;;5074838;28;20520;-82
2023/09/30 11:56:51;;;;;;;2.87;1.50;;;21.30;99.90;;;;;;5074493;28;20937;-82
2023/09/30 11:59:22;;;;;;;13.43;1.57;;;21.30;99.90;;;;;;5074617;28;20440;-82
2023/09/30 12:01:49;;;;;;;7.17;1.97;;;21.40;99.90;;;;;;5074580;28;20518;-82
2023/09/30 12:04:19;;;;;;;2.30;1.37;;;21.40;99.90;;;;;;5074517;28;20505;-82
2023/09/30 12:06:46;;;;;;;1.73;1.60;;;21.50;99.90;;;;;;5074483;28;20824;-82
2023/09/30 12:09:14;;;;;;;0.83;0.80;;;21.50;99.90;;;;;;5074196;28;20483;-82
2023/09/30 12:11:43;;;;;;;5.63;1.50;;;21.40;99.90;;;;;;5073952;28;20488;-82
2023/09/30 12:14:10;;;;;;;3.53;1.43;;;21.30;99.90;;;;;;5074574;28;20444;-82
2023/09/30 12:16:37;;;;;;;3.53;1.73;;;21.40;99.90;;;;;;5073945;28;20917;-82
2023/09/30 12:19:05;;;;;;;2.53;1.20;;;21.20;99.90;;;;;;5074173;28;20452;-82
2023/09/30 12:21:34;;;;;;;5.03;1.57;;;21.10;99.90;;;;;;5073701;28;20505;-82
2023/09/30 12:24:01;;;;;;;2.00;1.30;;;21.10;99.90;;;;;;5074111;28;20452;-82
2023/09/30 12:26:28;;;;;;;1.73;1.20;;;21.00;99.90;;;;;;5074236;28;20487;-82
2023/09/30 12:28:55;;;;;;;4.73;1.47;;;20.90;99.90;;;;;;5074033;28;20440;-82
2023/09/30 12:31:21;;;;;;;6.93;2.13;;;20.90;99.90;;;;;;5073848;28;20464;-82
2023/09/30 12:33:51;;;;;;;2.37;1.53;;;20.80;99.90;;;;;;5073848;28;20472;-83
2023/09/30 12:36:18;;;;;;;3.73;1.80;;;20.80;99.90;;;;;;5073789;28;20449;-82
2023/09/30 12:38:46;;;;;;;5.33;1.33;;;20.80;99.90;;;;;;5074030;28;20447;-82
2023/09/30 12:41:14;;;;;;;4.20;1.93;;;20.90;99.90;;;;;;5074144;28;20459;-82
2023/09/30 12:43:41;;;;;;;5.57;1.90;;;20.80;99.90;;;;;;5073581;28;20491;-82
2023/09/30 12:46:08;;;;;;;4.97;1.87;;;20.90;99.90;;;;;;5073740;28;20444;-82
2023/09/30 12:48:36;;;;;;;2.80;1.73;;;20.90;99.90;;;;;;5073429;28;20463;-82
2023/09/30 12:51:04;;;;;;;2.57;1.43;;;20.90;99.90;;;;;;5073630;28;20451;-82